sensor_id;sensor_type;location;lat;lon;timestamp;temperature;humidity
11423;DHT22;5768;51.476;7.210;2022-10-10T00:02:16;12.10;13.90
11423;DHT22;5768;51.476;7.210;2022-10-10T00:07:20;12.10;13.90
11423;DHT22;5768;51.476;7.210;2022-10-10T00:12:22;12.20;13.90
11423;DHT22;5768;51.476;7.210;2022-10-10T00:17:25;12.20;13.90
11423;DHT22;5768;51.476;7.210;2022-10-10T00:22:28;12.20;13.90
11423;DHT22;5768;51.476;7.210;2022-10-10T00:27:31;12.20;13.90
11423;DHT22;5768;51.476;7.210;2022-10-10T00:32:34;12.30;13.90
11423;DHT22;5768;51.476;7.210;2022-10-10T00:37:38;12.20;13.90
11423;DHT22;5768;51.476;7.210;2022-10-10T00:42:40;12.20;13.90
11423;DHT22;5768;51.476;7.210;2022-10-10T00:47:42;12.30;13.90
11423;DHT22;5768;51.476;7.210;2022-10-10T00:52:46;12.30;13.90
11423;DHT22;5768;51.476;7.210;2022-10-10T00:57:49;12.30;13.90
11423;DHT22;5768;51.476;7.210;2022-10-10T01:02:51;12.30;13.90
11423;DHT22;5768;51.476;7.210;2022-10-10T01:07:55;12.20;13.90
11423;DHT22;5768;51.476;7.210;2022-10-10T01:13:09;12.30;13.90
11423;DHT22;5768;51.476;7.210;2022-10-10T01:18:23;12.30;13.90
11423;DHT22;5768;51.476;7.210;2022-10-10T01:29:12;12.30;14.00
11423;DHT22;5768;51.476;7.210;2022-10-10T01:34:24;12.20;14.00
11423;DHT22;5768;51.476;7.210;2022-10-10T01:39:40;12.20;14.00
11423;DHT22;5768;51.476;7.210;2022-10-10T01:44:49;12.20;14.10
11423;DHT22;5768;51.476;7.210;2022-10-10T01:49:55;12.10;14.20
11423;DHT22;5768;51.476;7.210;2022-10-10T01:55:18;12.20;14.10
11423;DHT22;5768;51.476;7.210;2022-10-10T02:00:31;12.10;14.20
11423;DHT22;5768;51.476;7.210;2022-10-10T02:05:45;12.20;14.20
11423;DHT22;5768;51.476;7.210;2022-10-10T02:10:54;12.10;14.20
11423;DHT22;5768;51.476;7.210;2022-10-10T02:16:04;12.10;14.30
11423;DHT22;5768;51.476;7.210;2022-10-10T02:21:09;12.10;14.30
11423;DHT22;5768;51.476;7.210;2022-10-10T02:26:16;12.10;14.40
11423;DHT22;5768;51.476;7.210;2022-10-10T02:31:26;12.10;14.40
11423;DHT22;5768;51.476;7.210;2022-10-10T02:36:32;12.10;14.40
11423;DHT22;5768;51.476;7.210;2022-10-10T02:41:35;12.10;14.40
11423;DHT22;5768;51.476;7.210;2022-10-10T02:46:39;12.10;14.50
11423;DHT22;5768;51.476;7.210;2022-10-10T02:51:42;12.10;14.50
11423;DHT22;5768;51.476;7.210;2022-10-10T02:56:44;12.10;14.60
11423;DHT22;5768;51.476;7.210;2022-10-10T03:01:48;12.10;14.60
11423;DHT22;5768;51.476;7.210;2022-10-10T03:06:50;12.10;14.60
11423;DHT22;5768;51.476;7.210;2022-10-10T03:11:53;12.10;14.70
11423;DHT22;5768;51.476;7.210;2022-10-10T03:16:56;12.10;14.70
11423;DHT22;5768;51.476;7.210;2022-10-10T03:21:59;12.10;14.80
11423;DHT22;5768;51.476;7.210;2022-10-10T03:27:01;12.10;14.80
11423;DHT22;5768;51.476;7.210;2022-10-10T03:32:04;12.10;14.80
11423;DHT22;5768;51.476;7.210;2022-10-10T03:37:06;12.20;14.90
11423;DHT22;5768;51.476;7.210;2022-10-10T03:42:09;12.10;14.90
11423;DHT22;5768;51.476;7.210;2022-10-10T03:47:12;12.10;14.90
11423;DHT22;5768;51.476;7.210;2022-10-10T03:52:14;12.10;14.90
11423;DHT22;5768;51.476;7.210;2022-10-10T03:57:16;12.30;15.00
11423;DHT22;5768;51.476;7.210;2022-10-10T04:02:20;12.20;15.00
11423;DHT22;5768;51.476;7.210;2022-10-10T04:07:25;12.10;15.00
11423;DHT22;5768;51.476;7.210;2022-10-10T04:12:27;12.10;15.00
11423;DHT22;5768;51.476;7.210;2022-10-10T04:17:31;12.10;15.10
11423;DHT22;5768;51.476;7.210;2022-10-10T04:22:36;12.10;15.10
11423;DHT22;5768;51.476;7.210;2022-10-10T04:27:39;12.00;15.20
11423;DHT22;5768;51.476;7.210;2022-10-10T04:32:42;12.10;15.20
11423;DHT22;5768;51.476;7.210;2022-10-10T04:37:44;12.10;15.20
11423;DHT22;5768;51.476;7.210;2022-10-10T04:42:46;12.10;15.30
11423;DHT22;5768;51.476;7.210;2022-10-10T04:47:50;12.10;15.30
11423;DHT22;5768;51.476;7.210;2022-10-10T04:52:52;12.10;15.30
11423;DHT22;5768;51.476;7.210;2022-10-10T04:57:54;12.10;15.40
11423;DHT22;5768;51.476;7.210;2022-10-10T05:02:58;12.10;15.50
11423;DHT22;5768;51.476;7.210;2022-10-10T05:08:00;12.10;15.50
11423;DHT22;5768;51.476;7.210;2022-10-10T05:13:02;12.10;15.50
11423;DHT22;5768;51.476;7.210;2022-10-10T05:18:06;12.10;15.60
11423;DHT22;5768;51.476;7.210;2022-10-10T05:23:08;12.10;15.60
11423;DHT22;5768;51.476;7.210;2022-10-10T05:28:10;12.10;15.60
11423;DHT22;5768;51.476;7.210;2022-10-10T05:33:14;12.10;15.70
11423;DHT22;5768;51.476;7.210;2022-10-10T05:38:16;12.00;15.70
11423;DHT22;5768;51.476;7.210;2022-10-10T05:43:18;12.10;15.90
11423;DHT22;5768;51.476;7.210;2022-10-10T05:48:22;12.10;15.90
11423;DHT22;5768;51.476;7.210;2022-10-10T05:53:26;12.10;15.90
11423;DHT22;5768;51.476;7.210;2022-10-10T05:58:29;12.00;15.80
11423;DHT22;5768;51.476;7.210;2022-10-10T06:03:33;12.20;15.80
11423;DHT22;5768;51.476;7.210;2022-10-10T06:08:36;12.30;15.90
11423;DHT22;5768;51.476;7.210;2022-10-10T06:13:38;12.40;15.80
11423;DHT22;5768;51.476;7.210;2022-10-10T06:18:41;12.40;15.80
11423;DHT22;5768;51.476;7.210;2022-10-10T06:23:44;12.50;15.70
11423;DHT22;5768;51.476;7.210;2022-10-10T06:28:46;12.60;15.70
11423;DHT22;5768;51.476;7.210;2022-10-10T06:33:51;12.70;15.70
11423;DHT22;5768;51.476;7.210;2022-10-10T06:38:53;12.70;15.60
11423;DHT22;5768;51.476;7.210;2022-10-10T06:43:55;12.80;15.60
11423;DHT22;5768;51.476;7.210;2022-10-10T06:48:59;12.80;15.60
11423;DHT22;5768;51.476;7.210;2022-10-10T06:54:01;12.90;15.70
11423;DHT22;5768;51.476;7.210;2022-10-10T06:59:03;13.00;15.60
11423;DHT22;5768;51.476;7.210;2022-10-10T07:04:07;13.20;15.50
11423;DHT22;5768;51.476;7.210;2022-10-10T07:09:10;13.40;15.50
11423;DHT22;5768;51.476;7.210;2022-10-10T07:14:13;13.60;15.40
11423;DHT22;5768;51.476;7.210;2022-10-10T07:19:17;13.70;15.40
11423;DHT22;5768;51.476;7.210;2022-10-10T07:24:21;13.90;15.30
11423;DHT22;5768;51.476;7.210;2022-10-10T07:29:23;14.10;15.10
11423;DHT22;5768;51.476;7.210;2022-10-10T07:34:28;14.40;15.00
11423;DHT22;5768;51.476;7.210;2022-10-10T07:39:31;14.60;14.90
11423;DHT22;5768;51.476;7.210;2022-10-10T07:44:33;14.80;14.80
11423;DHT22;5768;51.476;7.210;2022-10-10T07:49:37;15.00;14.80
11423;DHT22;5768;51.476;7.210;2022-10-10T07:54:39;15.10;14.80
11423;DHT22;5768;51.476;7.210;2022-10-10T07:59:42;15.20;14.70
11423;DHT22;5768;51.476;7.210;2022-10-10T08:04:46;15.40;14.70
11423;DHT22;5768;51.476;7.210;2022-10-10T08:09:48;15.40;14.90
11423;DHT22;5768;51.476;7.210;2022-10-10T08:14:51;15.30;14.90
11423;DHT22;5768;51.476;7.210;2022-10-10T08:19:54;15.60;14.90
11423;DHT22;5768;51.476;7.210;2022-10-10T08:24:56;15.60;14.80
11423;DHT22;5768;51.476;7.210;2022-10-10T08:29:58;15.70;14.90
11423;DHT22;5768;51.476;7.210;2022-10-10T08:35:02;15.80;14.80
11423;DHT22;5768;51.476;7.210;2022-10-10T08:40:06;16.00;14.70
11423;DHT22;5768;51.476;7.210;2022-10-10T08:45:12;15.90;14.90
11423;DHT22;5768;51.476;7.210;2022-10-10T08:50:21;16.30;14.70
11423;DHT22;5768;51.476;7.210;2022-10-10T08:55:29;16.30;14.60
11423;DHT22;5768;51.476;7.210;2022-10-10T09:00:37;16.50;14.50
11423;DHT22;5768;51.476;7.210;2022-10-10T09:05:54;16.70;14.50
11423;DHT22;5768;51.476;7.210;2022-10-10T09:11:15;17.00;14.30
11423;DHT22;5768;51.476;7.210;2022-10-10T09:16:35;16.80;14.20
11423;DHT22;5768;51.476;7.210;2022-10-10T09:21:45;16.70;14.30
11423;DHT22;5768;51.476;7.210;2022-10-10T09:26:49;16.90;14.20
11423;DHT22;5768;51.476;7.210;2022-10-10T09:31:57;17.20;14.00
11423;DHT22;5768;51.476;7.210;2022-10-10T09:37:11;17.50;13.80
11423;DHT22;5768;51.476;7.210;2022-10-10T09:42:24;17.80;13.80
11423;DHT22;5768;51.476;7.210;2022-10-10T09:47:32;18.30;13.60
11423;DHT22;5768;51.476;7.210;2022-10-10T09:52:36;18.10;13.50
11423;DHT22;5768;51.476;7.210;2022-10-10T09:57:40;18.30;13.30
11423;DHT22;5768;51.476;7.210;2022-10-10T10:02:46;18.70;13.30
11423;DHT22;5768;51.476;7.210;2022-10-10T10:07:50;19.10;13.10
11423;DHT22;5768;51.476;7.210;2022-10-10T10:12:54;19.30;12.90
11423;DHT22;5768;51.476;7.210;2022-10-10T10:18:11;19.10;12.90
11423;DHT22;5768;51.476;7.210;2022-10-10T10:23:25;19.00;13.00
11423;DHT22;5768;51.476;7.210;2022-10-10T10:28:38;18.50;13.00
11423;DHT22;5768;51.476;7.210;2022-10-10T10:33:46;18.70;13.00
11423;DHT22;5768;51.476;7.210;2022-10-10T10:39:04;18.50;13.00
11423;DHT22;5768;51.476;7.210;2022-10-10T10:44:26;18.30;13.10
11423;DHT22;5768;51.476;7.210;2022-10-10T10:49:44;18.30;13.20
11423;DHT22;5768;51.476;7.210;2022-10-10T10:55:14;18.70;13.10
11423;DHT22;5768;51.476;7.210;2022-10-10T11:00:20;19.10;13.00
11423;DHT22;5768;51.476;7.210;2022-10-10T11:05:37;19.10;13.10
11423;DHT22;5768;51.476;7.210;2022-10-10T11:10:50;19.50;12.90
11423;DHT22;5768;51.476;7.210;2022-10-10T11:16:07;19.40;12.70
11423;DHT22;5768;51.476;7.210;2022-10-10T11:21:17;19.30;12.70
11423;DHT22;5768;51.476;7.210;2022-10-10T11:26:27;19.80;12.60
11423;DHT22;5768;51.476;7.210;2022-10-10T11:31:37;19.80;12.40
11423;DHT22;5768;51.476;7.210;2022-10-10T11:36:44;20.30;12.30
11423;DHT22;5768;51.476;7.210;2022-10-10T11:41:51;20.20;12.20
11423;DHT22;5768;51.476;7.210;2022-10-10T11:46:59;20.30;12.20
11423;DHT22;5768;51.476;7.210;2022-10-10T11:52:19;20.40;12.20
11423;DHT22;5768;51.476;7.210;2022-10-10T11:57:31;20.50;12.30
11423;DHT22;5768;51.476;7.210;2022-10-10T12:02:38;20.40;12.10
11423;DHT22;5768;51.476;7.210;2022-10-10T12:07:44;20.10;12.20
11423;DHT22;5768;51.476;7.210;2022-10-10T12:12:54;20.30;12.20
11423;DHT22;5768;51.476;7.210;2022-10-10T12:18:04;20.50;12.30
11423;DHT22;5768;51.476;7.210;2022-10-10T12:23:20;20.50;12.30
11423;DHT22;5768;51.476;7.210;2022-10-10T12:28:32;20.60;12.30
11423;DHT22;5768;51.476;7.210;2022-10-10T12:34:00;20.60;12.30
11423;DHT22;5768;51.476;7.210;2022-10-10T12:39:35;20.30;12.40
11423;DHT22;5768;51.476;7.210;2022-10-10T12:44:44;20.20;12.50
11423;DHT22;5768;51.476;7.210;2022-10-10T12:49:48;20.40;12.50
11423;DHT22;5768;51.476;7.210;2022-10-10T12:54:52;20.40;12.60
11423;DHT22;5768;51.476;7.210;2022-10-10T13:00:06;20.90;12.40
11423;DHT22;5768;51.476;7.210;2022-10-10T13:05:26;21.20;12.50
11423;DHT22;5768;51.476;7.210;2022-10-10T13:10:31;21.70;12.40
11423;DHT22;5768;51.476;7.210;2022-10-10T13:15:35;22.60;12.10
11423;DHT22;5768;51.476;7.210;2022-10-10T13:20:38;23.90;11.70
11423;DHT22;5768;51.476;7.210;2022-10-10T13:25:44;25.10;11.20
11423;DHT22;5768;51.476;7.210;2022-10-10T13:30:49;24.70;11.00
11423;DHT22;5768;51.476;7.210;2022-10-10T13:35:52;24.10;11.20
11423;DHT22;5768;51.476;7.210;2022-10-10T13:41:05;23.50;11.50
11423;DHT22;5768;51.476;7.210;2022-10-10T13:46:19;22.50;11.90
11423;DHT22;5768;51.476;7.210;2022-10-10T13:51:40;24.60;11.20
11423;DHT22;5768;51.476;7.210;2022-10-10T13:56:43;26.20;10.70
11423;DHT22;5768;51.476;7.210;2022-10-10T14:01:48;27.90;10.10
11423;DHT22;5768;51.476;7.210;2022-10-10T14:07:02;25.40;10.30
11423;DHT22;5768;51.476;7.210;2022-10-10T14:12:15;24.30;10.60
11423;DHT22;5768;51.476;7.210;2022-10-10T14:17:21;23.50;10.90
11423;DHT22;5768;51.476;7.210;2022-10-10T14:22:24;22.70;11.00
11423;DHT22;5768;51.476;7.210;2022-10-10T14:27:26;22.40;11.10
11423;DHT22;5768;51.476;7.210;2022-10-10T14:32:30;22.10;11.10
11423;DHT22;5768;51.476;7.210;2022-10-10T14:37:32;22.10;11.00
11423;DHT22;5768;51.476;7.210;2022-10-10T14:42:38;22.30;11.10
11423;DHT22;5768;51.476;7.210;2022-10-10T14:47:41;23.40;10.90
11423;DHT22;5768;51.476;7.210;2022-10-10T14:52:44;22.50;11.10
11423;DHT22;5768;51.476;7.210;2022-10-10T14:57:46;22.10;11.20
11423;DHT22;5768;51.476;7.210;2022-10-10T15:02:50;21.60;11.40
11423;DHT22;5768;51.476;7.210;2022-10-10T15:07:52;21.20;11.40
11423;DHT22;5768;51.476;7.210;2022-10-10T15:12:54;20.40;11.60
11423;DHT22;5768;51.476;7.210;2022-10-10T15:17:58;20.00;11.80
11423;DHT22;5768;51.476;7.210;2022-10-10T15:23:02;19.70;11.90
11423;DHT22;5768;51.476;7.210;2022-10-10T15:28:05;19.30;12.00
11423;DHT22;5768;51.476;7.210;2022-10-10T15:33:09;19.20;12.10
11423;DHT22;5768;51.476;7.210;2022-10-10T15:38:11;19.20;12.40
11423;DHT22;5768;51.476;7.210;2022-10-10T15:43:13;19.10;12.60
11423;DHT22;5768;51.476;7.210;2022-10-10T15:48:17;19.10;12.70
11423;DHT22;5768;51.476;7.210;2022-10-10T15:53:19;19.00;12.70
11423;DHT22;5768;51.476;7.210;2022-10-10T15:58:21;18.90;12.80
11423;DHT22;5768;51.476;7.210;2022-10-10T16:03:25;18.70;12.90
11423;DHT22;5768;51.476;7.210;2022-10-10T16:08:27;18.60;13.00
11423;DHT22;5768;51.476;7.210;2022-10-10T16:13:29;18.50;13.00
11423;DHT22;5768;51.476;7.210;2022-10-10T16:18:35;18.40;13.10
11423;DHT22;5768;51.476;7.210;2022-10-10T16:23:39;18.20;13.50
11423;DHT22;5768;51.476;7.210;2022-10-10T16:28:41;17.90;13.90
11423;DHT22;5768;51.476;7.210;2022-10-10T16:33:46;17.90;14.10
11423;DHT22;5768;51.476;7.210;2022-10-10T16:38:49;17.50;15.10
11423;DHT22;5768;51.476;7.210;2022-10-10T16:43:53;17.20;16.40
11423;DHT22;5768;51.476;7.210;2022-10-10T16:48:58;16.80;17.50
11423;DHT22;5768;51.476;7.210;2022-10-10T16:54:01;16.40;18.10
11423;DHT22;5768;51.476;7.210;2022-10-10T16:59:05;16.40;18.80
11423;DHT22;5768;51.476;7.210;2022-10-10T17:04:08;16.40;19.20
11423;DHT22;5768;51.476;7.210;2022-10-10T17:09:10;16.40;19.30
11423;DHT22;5768;51.476;7.210;2022-10-10T17:14:13;16.40;19.40
11423;DHT22;5768;51.476;7.210;2022-10-10T17:19:17;16.30;19.40
11423;DHT22;5768;51.476;7.210;2022-10-10T17:24:19;16.20;19.30
11423;DHT22;5768;51.476;7.210;2022-10-10T17:29:21;15.90;19.50
11423;DHT22;5768;51.476;7.210;2022-10-10T17:34:25;15.90;19.80
11423;DHT22;5768;51.476;7.210;2022-10-10T17:39:27;15.70;20.00
11423;DHT22;5768;51.476;7.210;2022-10-10T17:44:30;15.50;20.00
11423;DHT22;5768;51.476;7.210;2022-10-10T17:49:33;15.10;19.50
11423;DHT22;5768;51.476;7.210;2022-10-10T17:54:35;14.90;20.00
11423;DHT22;5768;51.476;7.210;2022-10-10T17:59:37;14.70;19.40
11423;DHT22;5768;51.476;7.210;2022-10-10T18:04:41;14.60;19.40
11423;DHT22;5768;51.476;7.210;2022-10-10T18:09:43;14.70;19.20
11423;DHT22;5768;51.476;7.210;2022-10-10T18:14:46;14.80;18.80
11423;DHT22;5768;51.476;7.210;2022-10-10T18:19:49;14.80;18.80
11423;DHT22;5768;51.476;7.210;2022-10-10T18:24:51;14.90;18.60
11423;DHT22;5768;51.476;7.210;2022-10-10T18:29:53;14.70;18.60
11423;DHT22;5768;51.476;7.210;2022-10-10T18:34:57;14.70;18.30
11423;DHT22;5768;51.476;7.210;2022-10-10T18:39:59;14.50;18.30
11423;DHT22;5768;51.476;7.210;2022-10-10T18:45:01;14.20;18.30
11423;DHT22;5768;51.476;7.210;2022-10-10T18:50:06;14.20;18.40
11423;DHT22;5768;51.476;7.210;2022-10-10T18:55:09;14.10;18.40
11423;DHT22;5768;51.476;7.210;2022-10-10T19:00:14;14.20;18.20
11423;DHT22;5768;51.476;7.210;2022-10-10T19:05:19;14.30;18.10
11423;DHT22;5768;51.476;7.210;2022-10-10T19:10:21;14.30;18.00
11423;DHT22;5768;51.476;7.210;2022-10-10T19:15:25;14.30;18.00
11423;DHT22;5768;51.476;7.210;2022-10-10T19:20:29;14.10;18.30
11423;DHT22;5768;51.476;7.210;2022-10-10T19:25:36;14.00;18.00
11423;DHT22;5768;51.476;7.210;2022-10-10T19:30:38;14.00;18.30
11423;DHT22;5768;51.476;7.210;2022-10-10T19:35:45;13.70;18.50
11423;DHT22;5768;51.476;7.210;2022-10-10T19:40:48;13.40;18.70
11423;DHT22;5768;51.476;7.210;2022-10-10T19:45:50;13.10;18.90
11423;DHT22;5768;51.476;7.210;2022-10-10T19:50:54;13.10;19.00
11423;DHT22;5768;51.476;7.210;2022-10-10T19:55:57;12.80;19.10
11423;DHT22;5768;51.476;7.210;2022-10-10T20:01:05;12.90;19.20
11423;DHT22;5768;51.476;7.210;2022-10-10T20:06:08;12.70;19.30
11423;DHT22;5768;51.476;7.210;2022-10-10T20:11:12;12.80;19.30
11423;DHT22;5768;51.476;7.210;2022-10-10T20:16:14;12.80;19.30
11423;DHT22;5768;51.476;7.210;2022-10-10T20:21:20;12.80;19.10
11423;DHT22;5768;51.476;7.210;2022-10-10T20:26:24;12.80;19.10
11423;DHT22;5768;51.476;7.210;2022-10-10T20:31:28;12.80;19.20
11423;DHT22;5768;51.476;7.210;2022-10-10T20:36:33;12.70;19.10
11423;DHT22;5768;51.476;7.210;2022-10-10T20:41:37;12.60;19.20
11423;DHT22;5768;51.476;7.210;2022-10-10T20:46:41;12.50;19.10
11423;DHT22;5768;51.476;7.210;2022-10-10T20:51:47;12.40;19.10
11423;DHT22;5768;51.476;7.210;2022-10-10T20:56:51;12.40;19.30
11423;DHT22;5768;51.476;7.210;2022-10-10T21:01:53;12.30;19.30
11423;DHT22;5768;51.476;7.210;2022-10-10T21:06:56;12.20;19.30
11423;DHT22;5768;51.476;7.210;2022-10-10T21:11:59;12.20;19.50
11423;DHT22;5768;51.476;7.210;2022-10-10T21:17:01;12.20;19.40
11423;DHT22;5768;51.476;7.210;2022-10-10T21:22:04;12.10;19.40
11423;DHT22;5768;51.476;7.210;2022-10-10T21:27:06;12.10;19.30
11423;DHT22;5768;51.476;7.210;2022-10-10T21:32:08;12.00;19.30
11423;DHT22;5768;51.476;7.210;2022-10-10T21:37:12;11.90;19.40
11423;DHT22;5768;51.476;7.210;2022-10-10T21:42:14;11.90;19.40
11423;DHT22;5768;51.476;7.210;2022-10-10T21:47:16;11.80;19.50
11423;DHT22;5768;51.476;7.210;2022-10-10T21:52:20;11.70;19.50
11423;DHT22;5768;51.476;7.210;2022-10-10T21:57:22;11.70;19.60
11423;DHT22;5768;51.476;7.210;2022-10-10T22:02:24;11.60;19.70
11423;DHT22;5768;51.476;7.210;2022-10-10T22:07:27;11.60;19.70
11423;DHT22;5768;51.476;7.210;2022-10-10T22:12:29;11.50;19.70
11423;DHT22;5768;51.476;7.210;2022-10-10T22:17:32;11.50;19.70
11423;DHT22;5768;51.476;7.210;2022-10-10T22:22:35;11.40;19.60
11423;DHT22;5768;51.476;7.210;2022-10-10T22:27:38;11.40;19.60
11423;DHT22;5768;51.476;7.210;2022-10-10T22:32:41;11.40;19.60
11423;DHT22;5768;51.476;7.210;2022-10-10T22:37:44;11.30;19.70
11423;DHT22;5768;51.476;7.210;2022-10-10T22:42:46;11.20;19.80
11423;DHT22;5768;51.476;7.210;2022-10-10T22:47:49;11.20;19.80
11423;DHT22;5768;51.476;7.210;2022-10-10T22:52:52;11.20;19.90
11423;DHT22;5768;51.476;7.210;2022-10-10T22:57:54;11.10;19.90
11423;DHT22;5768;51.476;7.210;2022-10-10T23:02:56;11.00;19.90
11423;DHT22;5768;51.476;7.210;2022-10-10T23:08:00;11.00;20.00
11423;DHT22;5768;51.476;7.210;2022-10-10T23:13:02;10.90;20.00
11423;DHT22;5768;51.476;7.210;2022-10-10T23:18:04;10.90;19.90
11423;DHT22;5768;51.476;7.210;2022-10-10T23:23:08;10.90;20.00
11423;DHT22;5768;51.476;7.210;2022-10-10T23:28:11;10.90;19.90
11423;DHT22;5768;51.476;7.210;2022-10-10T23:33:14;10.90;19.70
11423;DHT22;5768;51.476;7.210;2022-10-10T23:38:18;10.90;19.80
11423;DHT22;5768;51.476;7.210;2022-10-10T23:43:21;10.70;19.90
11423;DHT22;5768;51.476;7.210;2022-10-10T23:48:24;10.70;20.00
11423;DHT22;5768;51.476;7.210;2022-10-10T23:53:27;10.70;20.00
11423;DHT22;5768;51.476;7.210;2022-10-10T23:58:29;10.70;19.90
